Chuluota, Florida
Current Conditions -  °F | °C
As of 3:53 PM on Tuesday 27 Jan 2015 (Local Time) from KSFB Reporting Station
Clear Clear  
Wind Chill: 66°   Ceiling: Unl
Heat Index: 66°   Visibility: 10mi
Dew Point: 40°   Wind: 23mph
Humidity: 38%   Direction: 270°W
Pressure: 29.9"   Gusts: 32mph
Location:  28.647°N, 81.0852°W
Report Text: KSFB 272053Z 27020G28KT 10SM CLR 19/04 A2990 RMK AO2 PK WND 29032/2009 RAB10E20 SLP123 P0000 60000 T01890044 55022
Loading
Personal Weather Stations






























Interactive Weather Map New forecast layout! Learn more

10-Day Weather Forecast

Advertisements
Track Severe Weather on mobile